Deedsville, IN (46921)

11:00 AM EST on February 20, 2017 (GMT -0500)
K9DCC 1150 N. | | Change Station

Elev 850 ft 40.93 °N, 86.16 °W | Updated 19 seconds ago

Mostly Cloudy
Mostly Cloudy
55.2 °F
Feels Like 55.2 °F
N
8.3
Wind Variable Wind from ESE

Today
High -- | Low -- °F
--% Chance of Precip.
Yesterday
High -- | Low -- °F
Precip. -- in
Pressure 30.20 in
Visibility 5.0 miles
Clouds Clear
Dew Point 50 °F
Humidity 82%
Rainfall 0.00 in
Snow Depth Not available.
7:31 AM 6:25 PM
Waning Crescent, 33% visible
METAR KRCR 201535Z AUTO 14007KT 5SM HZ CLR 13/08 A3020 RMK AO2
Pressure 30.20 in
Visibility 5.0 miles
Clouds Clear
Dew Point 50 °F
Humidity 82%
Rainfall 0.00 in
Snow Depth Not available.
7:31 AM 6:25 PM
Waning Crescent, 33% visible
METAR KRCR 201535Z AUTO 14007KT 5SM HZ CLR 13/08 A3020 RMK AO2

Get Your Daily Forecast Email!

Thanks for signing up!

Be on the lookout for a verification email in your inbox.

You'll start receiving the daily forecast at 8 AM.

×

10-Day Weather Forecast

Almanac

Astronomy

Feb. 20, 2017 Rise Set
Actual Time
Civil Twilight
Nautical Twilight
Astronomical Twilight
Moon
Length of Visible Light
Length of Day
Tomorrow will be .
, % of the Moon is Illuminated

Today's Extremes

State Highs State Lows

Community

WunderPhotos

Upload Photos

1,962,540 photos uploaded!

WunderBlog® & News

Nearby

Air Quality

  Air Quality AQ Index Pollutant
Not available.

Snow Depth

Station Depth Elevation

Earthquake Activity

City Distance Mag. Time & Date
Minimum magnitude displayed is 2.5.

Coastal Water Temperatures

Place Temperature

Stations

Nearby Weather Stations

Station Location Temp. Windchill Dew Point Humidity Wind Precip. Elev Updated Type
                   

Watches & Warnings

Dense Fog Advisory
Issued: 9:45 AM CST Feb. 20, 2017 – National Weather Service

... Dense fog advisory will expire at 11 am EST /10 am CST/ this
morning...

The dense fog advisory will expire at 11 am EST /10 am CST/ this
morning.

The remaining pockets of dense fog are lifting, so the dense fog
advisory will be allowed to expire at the top of the hour.





Small Craft Advisory
Issued: 10:53 AM EST Feb. 20, 2017 – National Weather Service

... Small Craft Advisory remains in effect from 4 PM this
afternoon to 4 am EST Tuesday...

A Small Craft Advisory remains in effect from 4 PM this afternoon
to 4 am EST Tuesday.

* Winds: southeast 10 to 20 knots... veering south after
midnight. Gusts up to 25 knots.

* Waves: 1 to 4 feet.

Precautionary/preparedness actions...

A Small Craft Advisory means that sustained winds or frequent
gusts of 22 to 33 knots are likely... and/or waves greater than
4 feet are expected. Inexperienced mariners... especially those
operating smaller vessels should avoid navigating in these
conditions.